Time;durP1;ratioP1;P1;durP2;ratioP2;P2;SDS_P1;SDS_P2;PMS_P1;PMS_P2;Temp;Humidity;BMP_temperature;BMP_pressure;BME280_temperature;BME280_humidity;BME280_pressure;Samples;Min_cycle;Max_cycle;Signal;HPM_P1;HPM_P2
2022/04/08 00:00:43;;;;;;;1.25;0.75;;;8.30;99.90;;;;;;5197493;28;20070;-74
2022/04/08 00:03:16;;;;;;;1.13;0.85;;;8.20;99.90;;;;;;5222521;28;20063;-74
2022/04/08 00:05:48;;;;;;;0.80;0.80;;;8.20;99.90;;;;;;5220583;28;20058;-75
2022/04/08 00:08:21;;;;;;;1.95;1.05;;;8.20;99.90;;;;;;5233312;28;20047;-75
2022/04/08 00:10:54;;;;;;;4.33;0.93;;;8.20;99.90;;;;;;5229833;28;20040;-74
2022/04/08 00:13:27;;;;;;;0.90;0.73;;;8.20;99.90;;;;;;5226370;28;20298;-74
2022/04/08 00:16:00;;;;;;;3.70;1.00;;;8.20;99.90;;;;;;5237608;28;20044;-75
2022/04/08 00:18:32;;;;;;;1.67;0.90;;;8.20;99.90;;;;;;5240381;28;20055;-74
2022/04/08 00:21:05;;;;;;;2.10;0.75;;;8.20;99.90;;;;;;5226943;28;20096;-73
2022/04/08 00:23:37;;;;;;;1.25;0.80;;;8.20;99.90;;;;;;5239882;28;20051;-74
2022/04/08 00:26:10;;;;;;;1.08;0.85;;;8.20;99.90;;;;;;5242184;28;20044;-74
2022/04/08 00:28:43;;;;;;;0.95;0.68;;;8.20;99.90;;;;;;5237907;28;20052;-74
2022/04/08 00:31:16;;;;;;;1.95;0.95;;;8.20;99.90;;;;;;5220863;28;20045;-74
2022/04/08 00:33:48;;;;;;;2.47;1.00;;;8.20;99.90;;;;;;5236630;28;20132;-74
2022/04/08 00:36:21;;;;;;;2.28;0.88;;;8.20;99.90;;;;;;5240068;28;20407;-73
2022/04/08 00:38:54;;;;;;;4.20;0.90;;;8.20;99.90;;;;;;5226297;28;20048;-74
2022/04/08 00:41:26;;;;;;;3.00;0.85;;;8.20;99.90;;;;;;5221354;28;20052;-74
2022/04/08 00:43:59;;;;;;;1.83;0.90;;;8.30;99.90;;;;;;5235169;28;20047;-73
2022/04/08 00:46:31;;;;;;;2.42;1.90;;;8.20;99.90;;;;;;5239085;28;20053;-73
2022/04/08 00:49:05;;;;;;;2.55;0.90;;;8.20;99.90;;;;;;5191642;28;20543;-73
2022/04/08 00:51:39;;;;;;;4.65;0.88;;;8.20;99.90;;;;;;5233589;28;20048;-73
2022/04/08 00:54:13;;;;;;;1.48;1.05;;;8.20;99.90;;;;;;5236365;28;20056;-74
2022/04/08 00:56:46;;;;;;;2.78;1.13;;;8.20;99.90;;;;;;5237662;28;20052;-74
2022/04/08 00:59:18;;;;;;;5.05;1.40;;;8.20;99.90;;;;;;5238537;28;20053;-73
2022/04/08 01:01:51;;;;;;;4.97;1.30;;;8.10;99.90;;;;;;5225889;28;20045;-73
2022/04/08 01:04:27;;;;;;;4.30;1.77;;;8.10;99.90;;;;;;5236445;28;20047;-74
2022/04/08 01:07:01;;;;;;;4.20;1.42;;;8.00;99.90;;;;;;5225980;28;20048;-74
2022/04/08 01:09:34;;;;;;;4.55;1.40;;;8.00;99.90;;;;;;5240528;28;20412;-74
2022/04/08 01:12:07;;;;;;;2.00;1.37;;;7.90;99.90;;;;;;5229714;28;20055;-75
2022/04/08 01:14:40;;;;;;;3.83;1.33;;;7.90;99.90;;;;;;5220777;28;20658;-74
2022/04/08 01:17:12;;;;;;;4.55;1.33;;;7.90;99.90;;;;;;5230966;28;20048;-74
2022/04/08 01:19:45;;;;;;;5.82;1.20;;;7.90;99.90;;;;;;5229758;28;20040;-74
2022/04/08 01:22:18;;;;;;;2.20;1.23;;;7.80;99.90;;;;;;5235652;28;20051;-73
2022/04/08 01:25:02;;;;;;;6.38;1.23;;;7.80;99.90;;;;;;5239608;28;20154;-73
2022/04/08 01:27:35;;;;;;;2.95;1.30;;;7.80;99.90;;;;;;5237441;28;20044;-73
2022/04/08 01:30:12;;;;;;;3.83;1.40;;;7.70;99.90;;;;;;5230299;28;20043;-74
2022/04/08 01:32:44;;;;;;;4.35;1.20;;;7.70;99.90;;;;;;5236595;28;20040;-73
2022/04/08 01:35:17;;;;;;;8.90;1.80;;;7.70;99.90;;;;;;5231902;28;20066;-74
2022/04/08 01:37:50;;;;;;;3.35;1.40;;;7.70;99.90;;;;;;5231595;28;20401;-74
2022/04/08 01:40:23;;;;;;;6.40;2.10;;;7.60;99.90;;;;;;5237945;28;20040;-74
2022/04/08 01:42:55;;;;;;;5.18;1.45;;;7.70;99.90;;;;;;5222439;28;20064;-73
2022/04/08 01:45:28;;;;;;;5.90;2.90;;;7.60;99.90;;;;;;5233968;28;20471;-74
2022/04/08 01:48:03;;;;;;;7.65;2.10;;;7.60;99.90;;;;;;5238303;28;20055;-74
2022/04/08 01:50:35;;;;;;;6.57;1.85;;;7.60;99.90;;;;;;5233396;28;20056;-74
2022/04/08 01:53:08;;;;;;;5.80;2.00;;;7.60;99.90;;;;;;5218411;28;20067;-74
2022/04/08 01:55:40;;;;;;;5.10;1.83;;;7.60;99.90;;;;;;5230847;28;20516;-74
2022/04/08 01:58:13;;;;;;;4.60;1.52;;;7.60;99.90;;;;;;5230546;28;20044;-75
2022/04/08 02:00:46;;;;;;;8.45;2.50;;;7.50;99.90;;;;;;5235425;28;20059;-74
2022/04/08 02:03:20;;;;;;;5.35;2.28;;;7.60;99.90;;;;;;5231656;28;20059;-74
2022/04/08 02:05:53;;;;;;;11.25;2.42;;;7.60;99.90;;;;;;5230296;28;20040;-74
2022/04/08 02:08:25;;;;;;;12.23;2.20;;;7.50;99.90;;;;;;5234536;28;20070;-74
2022/04/08 02:10:58;;;;;;;8.90;2.30;;;7.50;99.90;;;;;;5238861;28;21497;-74
2022/04/08 02:13:33;;;;;;;10.40;3.28;;;7.50;99.90;;;;;;5223745;28;20398;-74
2022/04/08 02:16:05;;;;;;;5.93;1.95;;;7.50;99.90;;;;;;5220401;28;20044;-73
2022/04/08 02:18:38;;;;;;;9.05;2.83;;;7.40;99.90;;;;;;5238056;28;20381;-73
2022/04/08 02:21:11;;;;;;;16.10;2.97;;;7.40;99.90;;;;;;5219955;28;20514;-74
2022/04/08 02:23:43;;;;;;;5.65;2.53;;;7.40;99.90;;;;;;5238731;28;20059;-74
2022/04/08 02:26:16;;;;;;;12.13;2.80;;;7.40;99.90;;;;;;5237760;28;20044;-74
2022/04/08 02:28:49;;;;;;;10.38;2.45;;;7.40;99.90;;;;;;5219387;23;20044;-75
2022/04/08 02:31:21;;;;;;;10.32;2.38;;;7.40;99.90;;;;;;5270062;27;20043;-76
2022/04/08 02:33:54;;;;;;;11.40;2.92;;;7.40;99.90;;;;;;5247934;28;20046;-75
2022/04/08 02:36:26;;;;;;;13.50;3.50;;;7.40;99.90;;;;;;5255916;28;20039;-75
2022/04/08 02:38:59;;;;;;;7.88;2.60;;;7.40;99.90;;;;;;5269443;28;20542;-76
2022/04/08 02:41:32;;;;;;;12.77;2.90;;;7.40;99.90;;;;;;5265818;27;20066;-75
2022/04/08 02:44:05;;;;;;;10.07;2.90;;;7.30;99.90;;;;;;5268686;28;20047;-76
2022/04/08 02:46:37;;;;;;;9.30;2.67;;;7.30;99.90;;;;;;5264375;28;20153;-76
2022/04/08 02:49:10;;;;;;;9.30;2.65;;;7.30;99.90;;;;;;5263392;28;20035;-76
2022/04/08 02:51:43;;;;;;;10.45;3.22;;;7.20;99.90;;;;;;5251998;28;20052;-78
2022/04/08 02:54:15;;;;;;;11.45;3.47;;;7.20;99.90;;;;;;5269943;27;20044;-72
2022/04/08 02:56:48;;;;;;;9.95;2.65;;;7.20;99.90;;;;;;5265593;28;20040;-75
2022/04/08 02:59:20;;;;;;;11.23;2.72;;;7.20;99.90;;;;;;5265184;27;20062;-76
2022/04/08 03:01:53;;;;;;;11.15;3.03;;;7.20;99.90;;;;;;5267249;28;20820;-76
2022/04/08 03:04:26;;;;;;;12.25;3.00;;;7.20;99.90;;;;;;5254981;28;20143;-76
2022/04/08 03:07:01;;;;;;;13.17;2.97;;;7.10;99.90;;;;;;5239601;28;20060;-75
2022/04/08 03:09:33;;;;;;;6.97;2.67;;;7.10;99.90;;;;;;5279211;28;20062;-76
2022/04/08 03:12:06;;;;;;;13.52;4.00;;;7.10;99.90;;;;;;5278435;28;20051;-75
2022/04/08 03:14:39;;;;;;;12.45;3.20;;;7.10;99.90;;;;;;5275641;27;20078;-75
2022/04/08 03:17:11;;;;;;;11.90;3.17;;;7.10;99.90;;;;;;5249968;28;20051;-76
2022/04/08 03:19:44;;;;;;;11.27;3.60;;;7.10;99.90;;;;;;5278125;28;20054;-75
2022/04/08 03:22:20;;;;;;;14.60;3.55;;;7.10;99.90;;;;;;5274829;27;20036;-76
2022/04/08 03:24:54;;;;;;;8.88;2.95;;;7.10;99.90;;;;;;5272845;27;20491;-76
2022/04/08 03:27:26;;;;;;;;;;;7.00;99.90;;;;;;5277215;27;20051;-76
2022/04/08 03:29:59;;;;;;;9.07;3.42;;;7.00;99.90;;;;;;5272969;28;19935;-75
2022/04/08 03:32:31;;;;;;;12.77;3.42;;;6.90;99.90;;;;;;5276429;28;20039;-75
2022/04/08 03:35:05;;;;;;;20.45;4.97;;;7.00;99.90;;;;;;5274226;28;20577;-75
2022/04/08 03:37:37;;;;;;;13.20;3.05;;;7.00;99.90;;;;;;5275809;28;20503;-76
2022/04/08 03:40:10;;;;;;;13.52;3.28;;;7.00;99.90;;;;;;5253506;28;20055;-76
2022/04/08 03:42:43;;;;;;;14.25;3.03;;;6.90;99.90;;;;;;5247320;28;20125;-73
2022/04/08 03:45:16;;;;;;;12.02;3.08;;;6.90;99.90;;;;;;5270451;28;20514;-75
2022/04/08 03:47:48;;;;;;;12.05;3.20;;;7.00;99.90;;;;;;5253790;28;20051;-76
2022/04/08 03:50:21;;;;;;;21.60;3.65;;;6.90;99.90;;;;;;5271586;28;20408;-75
2022/04/08 03:52:53;;;;;;;10.40;3.70;;;6.90;99.90;;;;;;5269017;27;20043;-75
2022/04/08 03:55:26;;;;;;;13.48;2.92;;;6.80;99.90;;;;;;5270832;27;20050;-76
2022/04/08 03:59:37;;;;;;;7.78;2.67;;;6.70;99.90;;;;;;5212648;27;20972;-74
2022/04/08 04:02:10;;;;;;;11.30;3.25;;;6.80;99.90;;;;;;5191952;28;20467;-74
2022/04/08 04:04:43;;;;;;;12.00;3.07;;;6.80;99.90;;;;;;5218763;28;20061;-75
2022/04/08 04:07:15;;;;;;;11.05;3.00;;;6.80;99.90;;;;;;5208612;28;20642;-74
2022/04/08 04:09:48;;;;;;;13.98;2.65;;;6.70;99.90;;;;;;5210662;28;20044;-75
2022/04/08 04:12:20;;;;;;;9.75;4.15;;;6.70;99.90;;;;;;5212385;28;20496;-74
2022/04/08 04:14:57;;;;;;;8.97;2.23;;;6.70;99.90;;;;;;5211202;28;20045;-75
2022/04/08 04:17:29;;;;;;;9.48;2.20;;;6.70;99.90;;;;;;5210398;28;20044;-76
2022/04/08 04:20:02;;;;;;;10.85;2.45;;;6.70;99.90;;;;;;5215185;28;21078;-75
2022/04/08 04:22:35;;;;;;;11.13;2.17;;;6.70;99.90;;;;;;5204029;28;20041;-74
2022/04/08 04:25:08;;;;;;;11.05;2.50;;;6.70;99.90;;;;;;5219589;28;20041;-74
2022/04/08 04:27:40;;;;;;;14.60;2.72;;;6.70;99.90;;;;;;5205484;28;20072;-74
2022/04/08 04:30:13;;;;;;;12.60;2.45;;;6.60;99.90;;;;;;5207757;28;20048;-74
2022/04/08 04:32:46;;;;;;;7.75;1.92;;;6.70;99.90;;;;;;5207498;28;26051;-74
2022/04/08 04:35:18;;;;;;;11.32;2.15;;;6.60;99.90;;;;;;5241241;28;20053;-76
2022/04/08 04:37:51;;;;;;;7.20;2.65;;;6.60;99.90;;;;;;5207781;28;20123;-74
2022/04/08 04:40:25;;;;;;;18.55;5.10;;;6.60;99.90;;;;;;5208528;28;20041;-73
2022/04/08 04:42:58;;;;;;;15.82;5.50;;;6.60;99.90;;;;;;5208588;28;20041;-74
2022/04/08 04:45:30;;;;;;;8.82;3.35;;;6.60;99.90;;;;;;5208320;28;20076;-73
2022/04/08 04:48:04;;;;;;;9.00;2.67;;;6.60;99.90;;;;;;5200134;28;20064;-73
2022/04/08 04:50:37;;;;;;;;;;;6.60;99.90;;;;;;5207871;28;20489;-74
2022/04/08 04:53:10;;;;;;;12.05;3.70;;;6.60;99.90;;;;;;5213599;28;20398;-73
2022/04/08 04:55:42;;;;;;;15.70;4.93;;;6.60;99.90;;;;;;5217033;28;20045;-74
2022/04/08 04:58:15;;;;;;;10.25;3.42;;;6.70;99.90;;;;;;5211655;28;20055;-74
2022/04/08 05:00:48;;;;;;;13.00;5.10;;;6.70;99.90;;;;;;5192227;28;20056;-75
2022/04/08 05:03:20;;;;;;;7.70;3.22;;;6.70;99.90;;;;;;5199934;28;23318;-76
2022/04/08 05:05:53;;;;;;;10.32;4.40;;;6.70;99.90;;;;;;5203675;28;20064;-74
2022/04/08 05:08:25;;;;;;;14.17;4.50;;;6.80;99.90;;;;;;5209616;28;20061;-75
2022/04/08 05:10:58;;;;;;;9.02;2.97;;;6.70;99.90;;;;;;5191723;28;20061;-75
2022/04/08 05:13:32;;;;;;;10.10;3.77;;;6.80;99.90;;;;;;5191722;28;20046;-74
2022/04/08 05:16:05;;;;;;;6.07;2.78;;;6.80;99.90;;;;;;5186975;28;20057;-74
2022/04/08 05:18:39;;;;;;;8.15;2.97;;;6.80;99.90;;;;;;5190938;28;20056;-74
2022/04/08 05:21:11;;;;;;;19.00;3.45;;;6.80;99.90;;;;;;5184270;28;20682;-74
2022/04/08 05:23:44;;;;;;;10.07;2.55;;;6.80;99.90;;;;;;5224960;28;20048;-74
2022/04/08 05:26:16;;;;;;;9.98;2.83;;;6.80;99.90;;;;;;5192017;28;20045;-75
2022/04/08 05:28:49;;;;;;;7.93;2.25;;;6.80;99.90;;;;;;5193042;28;20049;-75
2022/04/08 05:31:21;;;;;;;10.45;3.50;;;6.80;99.90;;;;;;5195354;28;20044;-75
2022/04/08 05:33:54;;;;;;;9.65;4.07;;;6.80;99.90;;;;;;5186134;28;20060;-75
2022/04/08 05:36:27;;;;;;;13.95;2.55;;;6.80;99.90;;;;;;5173014;28;20060;-74
2022/04/08 05:38:59;;;;;;;7.28;2.67;;;6.80;99.90;;;;;;5187019;28;20051;-75
2022/04/08 05:41:32;;;;;;;10.90;2.38;;;6.80;99.90;;;;;;5197596;28;20041;-74
2022/04/08 05:44:05;;;;;;;5.70;2.08;;;6.90;99.90;;;;;;5206842;28;20402;-75
2022/04/08 05:46:37;;;;;;;9.63;2.85;;;6.90;99.90;;;;;;5196581;28;20041;-76
2022/04/08 05:49:10;;;;;;;12.32;2.90;;;6.90;99.90;;;;;;5200512;28;20745;-75
2022/04/08 05:51:45;;;;;;;11.07;2.75;;;6.90;99.90;;;;;;5197928;28;20049;-76
2022/04/08 05:54:18;;;;;;;12.82;3.22;;;6.90;99.90;;;;;;5195542;28;20059;-76
2022/04/08 05:56:51;;;;;;;11.03;3.50;;;6.90;99.90;;;;;;5194299;28;20045;-75
2022/04/08 05:59:23;;;;;;;16.05;3.28;;;6.90;99.90;;;;;;5196754;28;20041;-76
2022/04/08 06:01:56;;;;;;;14.82;4.65;;;6.90;99.90;;;;;;5200638;28;20049;-76
2022/04/08 06:04:29;;;;;;;15.07;3.65;;;6.90;99.90;;;;;;5197848;28;20045;-75
2022/04/08 06:07:01;;;;;;;13.20;3.80;;;6.90;99.90;;;;;;5201538;28;20037;-76
2022/04/08 06:09:34;;;;;;;10.82;3.60;;;6.90;99.90;;;;;;5215049;28;20052;-75
2022/04/08 06:12:07;;;;;;;9.88;3.10;;;7.00;99.90;;;;;;5197679;28;20638;-75
2022/04/08 06:14:39;;;;;;;7.67;2.57;;;6.90;99.90;;;;;;5194980;28;20045;-75
2022/04/08 06:17:15;;;;;;;10.63;3.00;;;7.00;99.90;;;;;;5200770;28;20053;-76
2022/04/08 06:19:49;;;;;;;12.90;4.40;;;6.90;99.90;;;;;;5205828;28;20053;-76
2022/04/08 06:22:21;;;;;;;12.00;3.28;;;6.90;99.90;;;;;;5207334;28;20055;-76
2022/04/08 06:24:53;;;;;;;14.88;3.35;;;6.90;99.90;;;;;;5215673;28;20049;-75
2022/04/08 06:27:26;;;;;;;9.07;3.40;;;7.00;99.90;;;;;;5203804;28;20045;-76
2022/04/08 06:29:58;;;;;;;12.38;3.63;;;7.00;99.90;;;;;;5218510;28;20128;-76
2022/04/08 06:32:31;;;;;;;16.02;3.63;;;7.00;99.90;;;;;;5204998;28;20057;-76
2022/04/08 06:35:04;;;;;;;8.57;3.80;;;7.00;99.90;;;;;;5201676;28;20067;-74
2022/04/08 06:37:37;;;;;;;11.07;3.35;;;7.00;99.90;;;;;;5200993;28;20064;-75
2022/04/08 06:40:10;;;;;;;13.23;3.92;;;7.00;99.90;;;;;;5179173;28;20903;-75
2022/04/08 06:42:42;;;;;;;14.23;4.97;;;7.00;99.90;;;;;;5190502;28;20057;-75
2022/04/08 06:45:15;;;;;;;10.48;3.08;;;7.10;99.90;;;;;;5171844;28;20515;-75
2022/04/08 06:47:51;;;;;;;14.00;3.53;;;7.10;99.90;;;;;;5198970;28;20053;-76
2022/04/08 06:50:24;;;;;;;12.57;4.00;;;7.00;99.90;;;;;;5186827;28;20053;-73
2022/04/08 06:53:00;;;;;;;10.07;4.55;;;7.00;99.90;;;;;;5198229;28;20424;-75
2022/04/08 06:55:33;;;;;;;16.98;4.57;;;7.00;99.90;;;;;;5178593;28;20056;-75
2022/04/08 06:58:06;;;;;;;18.00;5.10;;;7.00;99.90;;;;;;5189437;28;20052;-75
2022/04/08 07:00:39;;;;;;;11.63;3.85;;;7.10;99.90;;;;;;5197761;28;20044;-75
2022/04/08 07:03:11;;;;;;;13.95;3.70;;;7.20;99.90;;;;;;5202126;28;20045;-76
2022/04/08 07:05:44;;;;;;;9.82;4.13;;;7.30;99.90;;;;;;5186928;28;20060;-76
2022/04/08 07:08:17;;;;;;;11.60;3.92;;;7.30;99.90;;;;;;5203765;28;20045;-75
2022/04/08 07:10:49;;;;;;;13.35;4.82;;;7.40;99.90;;;;;;5217315;28;20048;-75
2022/04/08 07:13:21;;;;;;;16.00;4.00;;;7.40;99.90;;;;;;5187980;28;20064;-75
2022/04/08 07:15:54;;;;;;;24.30;7.88;;;7.50;99.90;;;;;;5198132;28;20040;-75
2022/04/08 07:18:27;;;;;;;9.07;4.10;;;7.50;99.90;;;;;;5197768;28;20044;-76
2022/04/08 07:21:00;;;;;;;12.07;3.35;;;7.60;99.90;;;;;;5196608;28;20040;-76
2022/04/08 07:23:32;;;;;;;5.07;2.03;;;7.60;99.90;;;;;;5201990;28;20397;-76
2022/04/08 07:26:05;;;;;;;12.60;2.90;;;7.60;99.90;;;;;;5209430;28;20045;-77
2022/04/08 07:28:37;;;;;;;9.50;3.85;;;7.70;99.90;;;;;;5202524;28;20045;-76
2022/04/08 07:31:10;;;;;;;8.25;2.75;;;7.80;99.90;;;;;;5198635;28;20053;-76
2022/04/08 07:33:42;;;;;;;6.75;2.40;;;7.80;99.90;;;;;;5200075;28;20037;-76
2022/04/08 07:36:15;;;;;;;5.53;2.25;;;7.80;99.90;;;;;;5219600;28;20048;-76
2022/04/08 07:38:48;;;;;;;6.03;2.45;;;7.90;99.90;;;;;;5214754;28;20052;-75
2022/04/08 07:41:20;;;;;;;13.75;2.63;;;8.00;99.90;;;;;;5226547;28;20056;-74
2022/04/08 07:43:53;;;;;;;8.40;3.25;;;8.00;99.90;;;;;;5223875;28;20277;-73
2022/04/08 07:46:26;;;;;;;6.75;2.88;;;8.00;99.90;;;;;;5224615;28;20053;-73
2022/04/08 07:48:58;;;;;;;7.43;3.70;;;8.00;99.90;;;;;;5224758;28;20052;-73
2022/04/08 07:51:31;;;;;;;10.02;3.00;;;8.00;99.90;;;;;;5216939;28;20049;-73
2022/04/08 07:54:03;;;;;;;6.22;2.67;;;8.00;99.90;;;;;;5204399;28;20138;-74
2022/04/08 07:56:36;;;;;;;10.95;3.58;;;8.10;99.90;;;;;;5230171;28;20053;-73
2022/04/08 07:59:09;;;;;;;10.75;2.95;;;8.20;99.90;;;;;;5210534;28;20044;-74
2022/04/08 08:01:41;;;;;;;7.45;3.15;;;8.10;99.90;;;;;;5220718;28;20059;-74
2022/04/08 08:04:15;;;;;;;10.67;3.50;;;8.10;99.90;;;;;;5239320;28;20060;-73
2022/04/08 08:06:48;;;;;;;11.07;3.72;;;8.10;99.90;;;;;;5225096;28;20055;-73
2022/04/08 08:09:20;;;;;;;9.35;3.00;;;8.10;99.90;;;;;;5219009;28;20048;-74
2022/04/08 08:12:12;;;;;;;6.95;3.05;;;8.10;99.90;;;;;;5199063;28;20067;-73
2022/04/08 08:14:45;;;;;;;10.93;3.50;;;8.10;99.90;;;;;;5225854;28;20512;-73
2022/04/08 08:17:17;;;;;;;12.40;3.67;;;8.10;99.90;;;;;;5213670;28;20242;-74
2022/04/08 08:19:50;;;;;;;11.43;2.47;;;8.20;99.90;;;;;;5224572;28;20047;-74
2022/04/08 08:22:28;;;;;;;7.07;2.28;;;8.20;99.90;;;;;;5226944;28;20040;-73
2022/04/08 08:25:02;;;;;;;10.25;2.30;;;8.30;99.90;;;;;;5240216;28;20041;-73
2022/04/08 08:27:41;;;;;;;5.40;2.58;;;8.30;99.90;;;;;;5196387;28;20053;-73
2022/04/08 08:30:16;;;;;;;6.88;2.50;;;8.40;99.90;;;;;;5203689;28;20079;-73
2022/04/08 08:32:50;;;;;;;7.68;2.67;;;8.40;99.90;;;;;;5223123;28;20048;-74
2022/04/08 08:35:25;;;;;;;16.58;3.40;;;8.30;99.90;;;;;;5239626;28;20075;-74
2022/04/08 08:38:03;;;;;;;10.63;2.85;;;8.40;99.90;;;;;;5212424;28;20798;-73
2022/04/08 08:40:36;;;;;;;9.00;2.92;;;8.50;99.90;;;;;;5224220;28;20041;-73
2022/04/08 08:43:19;;;;;;;7.47;3.33;;;8.50;99.90;;;;;;5214296;28;20054;-74
2022/04/08 08:45:55;;;;;;;9.63;2.60;;;8.50;99.90;;;;;;5244086;28;20392;-73
2022/04/08 08:48:35;;;;;;;6.72;2.55;;;8.50;99.90;;;;;;5232481;28;20053;-74
2022/04/08 08:51:08;;;;;;;8.02;2.90;;;8.60;99.90;;;;;;5205781;28;20052;-75
2022/04/08 08:53:41;;;;;;;7.75;2.92;;;8.60;99.90;;;;;;5240941;28;20059;-73
2022/04/08 08:56:15;;;;;;;;;;;8.60;99.90;;;;;;5225256;28;20053;-74
2022/04/08 08:58:47;;;;;;;12.98;5.05;;;8.70;99.90;;;;;;5224922;28;20317;-73
2022/04/08 09:01:20;;;;;;;7.03;2.88;;;8.70;99.90;;;;;;5227361;28;20488;-73
2022/04/08 09:03:53;;;;;;;5.95;3.22;;;8.70;99.90;;;;;;5223402;28;20056;-74
2022/04/08 09:06:25;;;;;;;10.32;2.70;;;8.70;99.90;;;;;;5197262;28;20525;-73
2022/04/08 09:08:58;;;;;;;8.43;2.30;;;8.80;99.90;;;;;;5211449;28;20063;-73
2022/04/08 09:11:31;;;;;;;9.90;2.35;;;8.90;99.90;;;;;;5230111;28;20064;-73
2022/04/08 09:14:05;;;;;;;7.45;3.85;;;9.00;99.90;;;;;;5225482;28;20527;-74
2022/04/08 09:16:39;;;;;;;7.93;2.10;;;9.10;99.90;;;;;;5225493;28;20053;-74
2022/04/08 09:19:13;;;;;;;7.13;2.20;;;9.10;99.90;;;;;;5215893;28;20052;-73
2022/04/08 09:21:52;;;;;;;3.78;2.20;;;9.20;99.90;;;;;;5211602;28;20060;-73
2022/04/08 09:24:25;;;;;;;8.27;2.75;;;9.20;99.90;;;;;;5213757;28;20056;-73
2022/04/08 09:26:58;;;;;;;7.60;2.22;;;9.30;99.90;;;;;;5217663;28;20037;-74
2022/04/08 09:29:31;;;;;;;5.40;3.13;;;9.40;99.90;;;;;;5231316;28;20076;-74
2022/04/08 09:32:27;;;;;;;6.18;2.28;;;9.50;99.90;;;;;;5206152;28;20045;-74
2022/04/08 09:35:00;;;;;;;9.00;2.78;;;9.40;99.90;;;;;;5204922;28;20448;-75
2022/04/08 09:37:32;;;;;;;6.10;2.80;;;9.30;99.90;;;;;;5232542;28;20063;-74
2022/04/08 09:40:07;;;;;;;7.57;2.45;;;9.50;99.90;;;;;;5233578;28;20048;-74
2022/04/08 09:42:44;;;;;;;4.68;2.60;;;9.60;99.90;;;;;;5227567;28;20060;-74
2022/04/08 09:45:31;;;;;;;2.78;1.77;;;9.60;99.90;;;;;;5225094;28;20047;-74
2022/04/08 09:48:05;;;;;;;6.30;2.00;;;9.70;99.90;;;;;;5227988;28;20052;-73
2022/04/08 09:50:39;;;;;;;8.82;2.30;;;9.80;99.90;;;;;;5214466;28;20075;-74
2022/04/08 09:53:13;;;;;;;3.10;1.80;;;9.70;99.90;;;;;;5226127;28;20052;-73
2022/04/08 09:55:46;;;;;;;5.93;2.13;;;9.70;99.90;;;;;;5225165;28;20515;-74
2022/04/08 09:58:22;;;;;;;7.35;2.40;;;9.70;99.90;;;;;;5228677;28;20060;-75
2022/04/08 10:00:56;;;;;;;5.93;2.03;;;9.80;99.90;;;;;;5229398;28;20052;-75
2022/04/08 10:03:29;;;;;;;5.13;2.03;;;9.80;99.90;;;;;;5228568;28;20041;-74
2022/04/08 10:06:02;;;;;;;4.22;2.05;;;9.90;99.90;;;;;;5222695;28;20378;-75
2022/04/08 10:08:35;;;;;;;3.55;1.70;;;9.90;99.90;;;;;;5228389;28;20041;-75
2022/04/08 10:11:37;;;;;;;2.90;1.38;;;9.90;99.90;;;;;;5228211;28;20052;-74
2022/04/08 10:14:39;;;;;;;6.05;1.65;;;9.80;99.90;;;;;;5233790;28;20063;-76
2022/04/08 10:17:13;;;;;;;3.70;1.88;;;9.80;99.90;;;;;;5198774;28;20045;-75
2022/04/08 10:19:45;;;;;;;6.50;2.15;;;9.90;99.90;;;;;;5223243;28;20551;-75
2022/04/08 10:22:23;;;;;;;5.65;2.03;;;9.80;99.90;;;;;;5239981;28;20081;-75
2022/04/08 10:24:56;;;;;;;5.03;2.15;;;9.80;99.90;;;;;;5226680;28;20138;-74
2022/04/08 10:27:38;;;;;;;6.57;2.75;;;9.80;99.90;;;;;;5226227;28;20492;-75
2022/04/08 10:30:20;;;;;;;6.47;3.03;;;9.80;99.90;;;;;;5225162;28;20407;-75
2022/04/08 10:33:05;;;;;;;6.45;2.65;;;9.90;99.90;;;;;;5227609;28;20045;-75
2022/04/08 10:35:38;;;;;;;7.32;3.10;;;9.90;99.90;;;;;;5223577;28;20044;-74
2022/04/08 10:38:11;;;;;;;6.28;2.70;;;9.80;99.90;;;;;;5220887;28;20055;-73
2022/04/08 10:40:53;;;;;;;8.45;3.50;;;9.80;99.90;;;;;;5240023;28;21029;-75
2022/04/08 10:43:26;;;;;;;5.28;3.20;;;9.80;99.90;;;;;;5212092;28;20064;-75
2022/04/08 10:45:58;;;;;;;6.93;3.05;;;9.80;99.90;;;;;;5227323;28;20056;-74
2022/04/08 10:48:32;;;;;;;9.70;2.67;;;9.90;99.90;;;;;;5216689;28;20060;-75
2022/04/08 10:51:13;;;;;;;3.85;2.78;;;9.90;99.90;;;;;;5204897;28;20060;-75
2022/04/08 10:53:46;;;;;;;5.93;2.75;;;9.90;99.90;;;;;;5224894;28;20519;-75
2022/04/08 10:56:18;;;;;;;3.35;2.20;;;10.00;99.90;;;;;;5215155;28;20053;-75
2022/04/08 10:58:51;;;;;;;4.65;2.70;;;10.10;99.90;;;;;;5194687;28;20813;-74
2022/04/08 11:01:27;;;;;;;5.25;2.38;;;10.20;99.90;;;;;;5219495;28;20048;-75
2022/04/08 11:04:03;;;;;;;4.28;2.53;;;10.20;99.90;;;;;;5211963;28;20037;-77
2022/04/08 11:06:37;;;;;;;4.82;2.67;;;10.20;99.90;;;;;;5217095;28;20049;-77
2022/04/08 11:09:12;;;;;;;8.68;3.20;;;10.20;99.90;;;;;;5211823;28;20045;-77
2022/04/08 11:11:52;;;;;;;8.02;2.47;;;10.20;99.90;;;;;;5228492;28;20076;-77
2022/04/08 11:14:28;;;;;;;3.50;2.40;;;10.30;99.90;;;;;;5226938;28;20055;-77
2022/04/08 11:17:02;;;;;;;4.40;3.15;;;10.40;99.90;;;;;;5221279;28;20048;-77
2022/04/08 11:19:35;;;;;;;;;;;10.40;99.90;;;;;;5200200;28;20060;-77
2022/04/08 11:22:11;;;;;;;9.07;2.60;;;10.30;99.90;;;;;;5205991;28;20028;-77
2022/04/08 11:24:45;;;;;;;4.32;2.67;;;10.30;99.90;;;;;;5211018;28;20052;-78
2022/04/08 11:27:17;;;;;;;7.38;3.40;;;10.40;99.90;;;;;;5188828;28;20044;-78
2022/04/08 11:29:50;;;;;;;6.68;3.05;;;10.50;99.90;;;;;;5207133;28;20464;-77
2022/04/08 11:32:30;;;;;;;4.80;3.28;;;10.60;99.90;;;;;;5219831;28;20064;-77
2022/04/08 11:35:11;;;;;;;3.97;2.83;;;10.50;99.90;;;;;;5190260;28;20496;-77
2022/04/08 11:37:43;;;;;;;4.80;2.95;;;10.60;99.90;;;;;;5205051;28;20044;-77
2022/04/08 11:40:17;;;;;;;4.20;2.95;;;10.70;99.90;;;;;;5222747;28;20066;-77
2022/04/08 11:42:50;;;;;;;5.40;3.58;;;10.80;99.90;;;;;;5208426;28;20585;-77
2022/04/08 11:45:23;;;;;;;6.38;3.75;;;10.90;99.90;;;;;;5211297;28;20045;-76
2022/04/08 11:47:55;;;;;;;6.32;3.30;;;10.90;99.90;;;;;;5235072;28;21338;-76
2022/04/08 11:50:28;;;;;;;4.20;3.00;;;11.00;99.90;;;;;;5228986;28;20048;-74
2022/04/08 11:53:01;;;;;;;6.70;3.83;;;10.90;99.90;;;;;;5214932;28;20063;-75
2022/04/08 11:55:36;;;;;;;7.38;3.95;;;11.00;99.90;;;;;;5198207;28;20303;-75
2022/04/08 11:58:18;;;;;;;12.35;3.75;;;11.00;99.90;;;;;;5214816;28;20037;-75
2022/04/08 12:00:59;;;;;;;4.43;3.20;;;11.10;99.90;;;;;;5215962;28;21002;-75
2022/04/08 12:03:36;;;;;;;5.32;3.45;;;11.20;99.90;;;;;;5189996;28;20982;-74
2022/04/08 12:06:09;;;;;;;4.43;2.58;;;11.30;99.90;;;;;;5215393;28;20040;-75
2022/04/08 12:08:43;;;;;;;4.38;3.00;;;11.30;99.90;;;;;;5216525;28;20072;-74
2022/04/08 12:11:16;;;;;;;2.88;2.53;;;11.30;99.90;;;;;;5202691;28;20044;-74
2022/04/08 12:13:48;;;;;;;3.45;2.22;;;11.30;99.90;;;;;;5204657;28;20052;-75
2022/04/08 12:16:21;;;;;;;4.45;2.35;;;11.40;99.90;;;;;;5210743;28;20064;-74
2022/04/08 12:18:55;;;;;;;8.95;3.20;;;11.40;99.90;;;;;;5208115;28;20068;-73
2022/04/08 12:21:48;;;;;;;4.68;1.95;;;11.60;99.90;;;;;;5235931;28;20051;-76
2022/04/08 12:24:21;;;;;;;2.97;2.10;;;11.80;99.90;;;;;;5222579;28;20052;-73
2022/04/08 12:26:54;;;;;;;4.13;2.08;;;12.00;99.90;;;;;;5221087;28;20048;-74
2022/04/08 12:29:29;;;;;;;3.40;2.17;;;12.50;99.90;;;;;;5203091;28;20129;-74
2022/04/08 12:32:02;;;;;;;2.75;1.98;;;12.70;99.90;;;;;;5202195;28;20033;-74
2022/04/08 12:34:35;;;;;;;4.70;2.50;;;13.00;99.90;;;;;;5207611;28;20041;-75
2022/04/08 12:37:09;;;;;;;3.90;1.73;;;13.30;99.90;;;;;;5195559;28;20052;-76
2022/04/08 12:39:41;;;;;;;4.73;1.70;;;13.50;99.90;;;;;;5204667;28;20041;-75
2022/04/08 12:42:14;;;;;;;2.10;1.63;;;13.50;99.90;;;;;;5189573;28;20539;-75
2022/04/08 12:44:47;;;;;;;1.88;1.17;;;13.70;99.90;;;;;;5182895;28;20053;-75
2022/04/08 12:47:20;;;;;;;1.88;1.67;;;13.90;99.90;;;;;;5186143;28;20060;-74
2022/04/08 12:49:53;;;;;;;2.75;1.40;;;14.00;99.90;;;;;;5222688;28;20045;-74
2022/04/08 12:52:26;;;;;;;3.17;1.05;;;14.20;99.90;;;;;;5213051;28;20040;-74
2022/04/08 12:54:58;;;;;;;1.40;1.00;;;14.30;99.90;;;;;;5210531;28;20488;-75
2022/04/08 12:57:32;;;;;;;1.75;1.10;;;14.30;99.90;;;;;;5202215;28;20056;-75
2022/04/08 13:00:25;;;;;;;5.45;1.13;;;14.50;99.90;;;;;;5210948;28;20065;-74
2022/04/08 13:02:58;;;;;;;2.03;0.80;;;14.70;99.90;;;;;;5219813;28;20045;-76
2022/04/08 13:05:33;;;;;;;2.47;0.80;;;14.60;99.90;;;;;;5211289;28;20509;-75
2022/04/08 13:08:06;;;;;;;2.80;1.85;;;14.60;99.90;;;;;;5204426;28;20045;-75
2022/04/08 13:10:38;;;;;;;1.45;0.93;;;14.70;99.90;;;;;;5197115;28;20116;-75
2022/04/08 13:13:11;;;;;;;1.17;0.90;;;14.60;99.90;;;;;;5201880;28;20516;-75
2022/04/08 13:15:44;;;;;;;1.15;1.02;;;14.50;99.90;;;;;;5195152;28;20737;-75
2022/04/08 13:18:16;;;;;;;0.90;0.90;;;14.40;99.90;;;;;;5172932;28;20792;-75
2022/04/08 13:20:49;;;;;;;1.58;0.80;;;14.30;99.90;;;;;;5192924;28;20052;-75
2022/04/08 13:23:22;;;;;;;2.10;1.13;;;14.30;99.90;;;;;;5195754;28;20057;-74
2022/04/08 13:25:55;;;;;;;0.73;0.57;;;14.20;99.90;;;;;;5199144;28;20041;-74
2022/04/08 13:28:27;;;;;;;0.60;0.60;;;14.10;98.90;;;;;;5205778;28;20064;-74